Weather observations for the past three days for
Dickinson, Dickinson Municipal Airport
Metric (Imperial)
Date Time (mdt) Wind (kph) Vis. (km) Weather Sky Cond. Temperature (ºC) Relative Humidity Wind Chill (°C) Heat Index (°C) Pressure Precipitation (cm)
Air Dwpt 6 hour altimeter (cm) sea level (mb) 1 hr 3 hr 6 hr
Max. Min.
10 09:56 Vrbl 7 16.09 Fair CLR 12.8 -5.6 28% 76.61 1021.7
10 08:56 Vrbl 11 16.09 Fair CLR 11.7 -3.9 34% 76.61 1021.6
10 07:56 SE 11 16.09 Fair CLR 8.9 -2.8 44% 7 76.61 1021.7
10 06:56 S 7 16.09 Partly Cloudy SCT070 6.1 -2.8 53% 5 76.58 1021.6
10 05:56 Calm 16.09 Overcast OVC070 4.4 -2.2 7.8 2.8 63% 76.56 1021.5
10 04:56 NE 9 16.09 Overcast OVC075 4.4 -3.3 58% 2 76.53 1021.1
10 03:56 NE 9 16.09 Overcast OVC080 5 -3.9 53% 3 76.53 1020.7
10 02:56 E 9 16.09 Overcast OVC085 4.4 -3.9 55% 2 76.48 1020.3
10 01:56 N 9 16.09 Overcast BKN075 OVC095 6.1 -3.3 51% 4 76.48 1020.0
10 00:56 NE 7 16.09 Overcast OVC090 6.7 -3.9 47% 6 76.43 1019.5
09 23:56 Calm 16.09 Fair CLR 5.6 -3.3 15.6 4.4 53% 76.4 1019.3
09 22:56 NW 7 16.09 A Few Clouds FEW080 5.6 -2.8 55% 4 76.35 1018.7
09 21:56 NW 6 16.09 Fair CLR 9.4 -3.3 41% 76.33 1017.8
09 20:56 N 9 16.09 Fair CLR 11.1 -3.3 37% 76.25 1017.3
09 19:56 N 11 16.09 Fair CLR 12.2 -2.8 35% 76.2 1016.5
09 18:56 NW 24 16.09 Fair CLR 15 -2.8 29% 76.17 1016.1
09 17:56 NW 28 G 37 16.09 A Few Clouds FEW080 15.6 -2.8 16.7 13.3 28% 76.15 1016.1
09 16:56 N 26 G 43 16.09 Partly Cloudy SCT075 14.4 -2.2 32% 76.15 1015.9
09 15:56 NW 33 G 50 16.09 A Few Clouds and Breezy FEW070 16.1 -1.7 30% 76.15 1015.5
09 14:56 NW 24 G 44 16.09 Fair CLR 15.6 -1.7 31% 76.15 1015.5
09 13:56 N 30 G 50 16.09 A Few Clouds FEW075 15 -2.2 31% 76.15 1015.6
09 12:56 N 30 G 46 16.09 Fair CLR 14.4 -2.8 31% 76.15 1015.6
09 11:56 N 24 G 35 16.09 Fair CLR 13.3 -2.2 13.3 1.1 34% 76.15 1015.6
09 10:56 N 26 G 35 16.09 Fair CLR 11.7 -1.7 40% 76.15 1015.4
09 09:56 N 24 16.09 Fair CLR 11.1 -0.6 45% 76.12 1015.0
09 08:56 N 19 16.09 Fair CLR 8.9 2.8 66% 6 76.1 1014.7
09 07:56 N 13 16.09 Fair CLR 7.2 3.9 80% 5 76.05 1014.2
09 06:56 NW 9 16.09 Fair CLR 3.9 2.8 93% 2 76.02 1013.6
09 05:56 W 9 16.09 Fair CLR 1.7 1.7 8.3 1.7 100% -1 75.92 1012.5
09 04:56 N 11 16.09 Fair CLR 4.4 2.8 89% 2 75.84 1011.1
09 03:56 N 11 16.09 A Few Clouds FEW100 5.6 3.3 85% 3 75.79 1010.3
09 02:56 N 9 16.09 Fair CLR 6.1 3.9 86% 4 75.74 1009.7
09 01:56 NE 7 16.09 Partly Cloudy FEW075 SCT090 7.2 4.4 83% 6 75.67 1008.7
09 00:56 Calm 16.09 Light Rain BKN060 OVC085 7.8 5 83% 75.67 1008.5
08 23:56 NE 9 16.09 Light Rain OVC065 8.3 5 20.6 8.3 80% 7 75.62 1007.9 0.03 0.03
08 22:56 NE 26 16.09 Light Rain BKN065 BKN080 OVC095 10 3.3 63% 7 75.62 1007.7
08 21:56 N 28 16.09 Mostly Cloudy BKN080 12.2 2.8 53% 75.59 1007.2
08 20:56 N 20 16.09 A Few Clouds FEW120 12.8 2.8 51% 75.51 1006.5
08 19:56 N 13 16.09 A Few Clouds FEW110 16.1 -1.1 31% 75.41 1004.9
08 18:56 NW 30 16.09 A Few Clouds FEW120 19.4 -2.2 23% 75.39 1004.7
08 17:56 NW 37 G 56 16.09 Overcast and Breezy OVC100 20 -2.8 21.7 18.3 21% 75.44 1005.6
08 16:56 W 28 G 48 16.09 Partly Cloudy SCT110 20.6 -4.4 18% 75.46 1005.8
08 15:56 W 26 G 46 16.09 Partly Cloudy SCT100 21.1 -3.3 19% 75.51 1006.5
08 14:56 NW 33 G 59 16.09 Fair and Breezy CLR 20.6 -3.9 19% 75.62 1007.9
08 13:56 NW 22 G 46 16.09 Fair CLR 20.6 -3.9 19% 75.64 1008.3
08 12:56 N 22 G 43 16.09 Fair CLR 18.9 -4.4 20% 75.69 1009.1
08 11:56 NW 20 G 43 16.09 Fair CLR 18.3 -3.3 18.3 4.4 23% 75.74 1009.9
08 10:56 N 24 G 44 16.09 Fair CLR 17.8 -3.9 23% 75.74 1010.0
08 09:56 N 28 G 46 16.09 Fair CLR 16.7 -3.9 24% 75.77 1010.2
08 08:56 N 26 G 43 16.09 Fair CLR 14.4 -2.8 31% 75.74 1009.7
08 07:56 NW 20 16.09 Fair CLR 11.7 0 45% 75.72 1009.4
08 06:56 NW 20 16.09 Fair CLR 6.7 1.1 68% 3 75.67 1009.0
08 05:56 W 19 16.09 Fair CLR 4.4 0 7.2 3.9 73% 1 75.59 1008.0
08 04:56 W 24 16.09 Fair CLR 5.6 -0.6 65% 2 75.54 1007.2
08 03:56 W 19 16.09 Fair CLR 6.1 -2.8 53% 3 75.51 1006.6
08 02:56 SW 17 16.09 Fair CLR 4.4 -5 51% 1 75.51 1007.1
08 01:56 SW 17 16.09 Fair CLR 5 -5.6 47% 2 75.57 1007.8
08 00:56 S 15 16.09 Partly Cloudy SCT100 5.6 -5 47% 3 75.62 1008.2
07 23:56 S 13 16.09 Mostly Cloudy BKN120 3.9 -5 16.7 3.3 53% 1 75.64 1008.8
07 22:56 S 9 16.09 Fair CLR 5.6 -5.6 45% 4 75.64 1009.1
07 21:56 S 7 16.09 Fair CLR 6.7 -6.1 40% 6 75.67 1009.2
07 20:56 NE 9 16.09 Overcast BKN090 OVC110 11.1 -5.6 31% 75.64 1008.8
07 19:56 NE 15 16.09 Overcast OVC095 13.3 -5.6 27% 75.59 1008.3
07 18:56 NW 13 16.09 Fair CLR 16.1 -5.6 22% 75.57 1007.9
07 17:56 NW 20 G 35 16.09 Fair CLR 16.7 -6.1 18.3 13.9 21% 75.57 1008.2
07 16:56 W 19 G 44 16.09 Partly Cloudy SCT100 17.2 -7.2 18% 75.57 1008.1
07 15:56 W 30 G 43 16.09 Fair CLR 18.3 -6.7 18% 75.57 1008.3
07 14:56 NW 20 G 39 16.09 Fair CLR 17.8 -6.7 18% 75.62 1008.9
07 13:56 NW 13 16.09 Fair CLR 16.1 -8.3 18% 75.67 1009.6
07 12:56 NW 19 G 30 16.09 Fair CLR 15.6 -8.3 19% 75.69 1010.0
07 11:56 SW 11 16.09 Fair CLR 14.4 -8.3 14.4 -1.1 20% 75.72 1010.6
07 10:56 NW 19 G 28 16.09 Fair CLR 13.3 -8.9 21% 75.74 1010.7
Date Time (mdt) Wind (kph) Vis. (km) Weather Sky Cond. Air Dwpt Max. Min. Relative Humidity Wind Chill (°C) Heat Index (°C) altimeter (cm) sea level (mb) 1 hr 3 hr 6 hr
6 hour
Temperature (ºC) Pressure Precipitation (cm)